Mena, Arkansas
Current Conditions -  °F | °C
As of 10:15 AM on Monday 22 Dec 2014 (Local Time) from KMEZ Reporting Station
Overcast Overcast  
Wind Chill: 54°   Ceiling: 400
Heat Index: 54°   Visibility: 4mi
Dew Point: 52°   Wind: 7mph
Humidity: 94%   Direction: 190°S
Pressure: 29.64"   Gusts: NA
Location:  34.59°N, 94.24°W
Report Text: KMEZ 221615Z AUTO 19006KT 4SM OVC004 12/11 A2964 RMK AO2
Loading
Personal Weather Stations






























Interactive Weather Map New forecast layout! Learn more

10-Day Weather Forecast

Advertisements
Track Severe Weather on mobile